Time;durP1;ratioP1;P1;durP2;ratioP2;P2;SDS_P1;SDS_P2;PMS_P1;PMS_P2;Temp;Humidity;BMP_temperature;BMP_pressure;BME280_temperature;BME280_humidity;BME280_pressure;Samples;Min_cycle;Max_cycle;Signal;HPM_P1;HPM_P2
2021/04/13 00:00:25;;;;;;;10.43;8.43;;;;;;;2.69;77.50;101740.69;5076702;28;20117;-84
2021/04/13 00:02:54;;;;;;;9.48;7.60;;;;;;;2.65;77.27;101749.41;5066844;28;20072;-84
2021/04/13 00:05:31;;;;;;;9.73;7.78;;;;;;;2.58;77.72;101731.03;5079369;28;20052;-84
2021/04/13 00:08:07;;;;;;;10.18;7.78;;;;;;;2.59;77.53;101735.41;5069176;28;20052;-85
2021/04/13 00:10:39;;;;;;;10.27;7.82;;;;;;;2.58;77.48;101737.16;5091481;28;20055;-85
2021/04/13 00:13:06;;;;;;;9.85;7.90;;;;;;;2.58;78.14;101746.72;5091075;28;20052;-83
2021/04/13 00:15:39;;;;;;;10.32;7.85;;;;;;;2.57;78.17;101740.63;5085011;28;20052;-80
2021/04/13 00:18:13;;;;;;;12.05;8.40;;;;;;;2.57;77.91;101739.75;5081262;28;20400;-81
2021/04/13 00:20:50;;;;;;;11.38;8.13;;;;;;;2.57;77.75;101744.97;5086239;28;20138;-80
2021/04/13 00:23:18;;;;;;;11.63;8.05;;;;;;;2.56;78.03;101745.84;5082070;28;20076;-82
2021/04/13 00:25:57;;;;;;;14.02;8.13;;;;;;;2.55;78.11;101741.47;5071011;28;20458;-82
2021/04/13 00:28:30;;;;;;;11.45;7.95;;;;;;;2.53;78.46;101751.03;5068075;28;20124;-82
2021/04/13 00:30:59;;;;;;;11.32;8.30;;;;;;;2.52;77.86;101747.53;5074006;28;20126;-82
2021/04/13 00:33:28;;;;;;;12.93;8.40;;;;;;;2.49;77.74;101747.56;5034178;28;20056;-82
2021/04/13 00:36:11;;;;;;;11.10;8.38;;;;;;;2.45;78.19;101741.41;5061603;28;20072;-82
2021/04/13 00:38:48;;;;;;;10.75;8.07;;;;;;;2.44;78.27;101744.00;5070333;28;20071;-83
2021/04/13 00:41:27;;;;;;;10.68;8.30;;;;;;;2.42;78.27;101749.22;5068928;28;20115;-82
2021/04/13 00:44:07;;;;;;;10.38;7.90;;;;;;;2.38;79.04;101749.19;5068077;28;20741;-82
2021/04/13 00:46:41;;;;;;;13.10;8.53;;;;;;;2.30;78.43;101741.31;5063687;28;20052;-82
2021/04/13 00:49:10;;;;;;;13.15;8.68;;;;;;;2.26;78.94;101747.34;5059659;28;20503;-81
2021/04/13 00:51:42;;;;;;;11.02;8.98;;;;;;;2.18;79.17;101728.13;5071535;28;20048;-82
2021/04/13 00:54:16;;;;;;;12.95;9.13;;;;;;;2.29;79.38;101746.50;5060995;28;20415;-82
2021/04/13 00:56:45;;;;;;;13.38;9.43;;;;;;;2.27;78.52;101743.88;5065416;28;20201;-81
2021/04/13 00:59:15;;;;;;;11.18;8.55;;;;;;;2.27;77.75;101746.50;5070793;28;20152;-82
2021/04/13 01:01:47;;;;;;;14.73;9.05;;;;;;;2.29;76.96;101750.00;5070167;28;20178;-83
2021/04/13 01:04:27;;;;;;;13.27;8.50;;;;;;;2.28;77.56;101748.25;5067969;28;20048;-81
2021/04/13 01:07:08;;;;;;;13.65;9.10;;;;;;;2.23;75.87;101749.94;5061306;28;20136;-82
2021/04/13 01:09:42;;;;;;;10.38;8.68;;;;;;;2.21;76.01;101749.03;5065439;28;20525;-83
2021/04/13 01:12:27;;;;;;;13.60;9.55;;;;;;;2.18;76.91;101756.00;5073124;28;20059;-82
2021/04/13 01:15:00;;;;;;;11.68;8.63;;;;;;;2.17;75.91;101757.75;5076538;28;20052;-82
2021/04/13 01:17:27;;;;;;;11.43;9.25;;;;;;;2.18;74.71;101759.50;5087913;28;20028;-83
2021/04/13 01:20:12;;;;;;;12.95;9.10;;;;;;;2.18;75.82;101754.28;5083487;28;20043;-81
2021/04/13 01:23:00;;;;;;;11.05;9.35;;;;;;;2.11;75.75;101749.84;5095436;28;20040;-82
2021/04/13 01:25:39;;;;;;;12.45;9.27;;;;;;;2.10;75.99;101748.97;5092752;28;20063;-81
2021/04/13 01:28:11;;;;;;;11.27;9.23;;;;;;;2.09;75.81;101764.63;5080887;28;20063;-81
2021/04/13 01:30:45;;;;;;;13.23;9.77;;;;;;;2.05;75.74;101749.75;5082743;28;20044;-81
2021/04/13 01:33:16;;;;;;;12.43;9.70;;;;;;;2.07;75.43;101758.50;5091378;28;20052;-81
2021/04/13 01:35:53;;;;;;;13.68;9.88;;;;;;;2.07;74.99;101750.66;5088870;28;20068;-82
2021/04/13 01:38:28;;;;;;;13.30;10.05;;;;;;;2.08;75.13;101758.50;5075487;28;20111;-82
2021/04/13 01:41:09;;;;;;;15.13;10.30;;;;;;;2.07;74.88;101763.72;5065652;28;20055;-82
2021/04/13 01:43:40;;;;;;;13.43;10.77;;;;;;;2.05;74.69;101760.22;5068288;28;20044;-82
2021/04/13 01:46:08;;;;;;;14.70;10.60;;;;;;;2.06;74.78;101770.69;5068997;28;20048;-82
2021/04/13 01:48:35;;;;;;;12.93;10.32;;;;;;;2.05;74.38;101768.94;5065991;28;20045;-82
2021/04/13 01:51:05;;;;;;;14.18;10.63;;;;;;;2.05;74.12;101770.66;5066195;28;20049;-82
2021/04/13 01:53:40;;;;;;;13.75;11.32;;;;;;;1.98;74.44;101763.66;5076082;28;20120;-81
2021/04/13 01:56:26;;;;;;;14.48;11.30;;;;;;;2.00;73.97;101759.31;5083704;28;20044;-83
2021/04/13 01:59:02;;;;;;;13.60;11.30;;;;;;;1.99;73.95;101771.50;5089905;28;20052;-81
2021/04/13 02:01:39;;;;;;;14.43;11.50;;;;;;;1.97;74.15;101757.53;5085377;28;20048;-82
2021/04/13 02:04:24;;;;;;;14.35;11.18;;;;;;;1.96;73.79;101757.53;5088049;28;20104;-82
2021/04/13 02:07:05;;;;;;;13.68;10.63;;;;;;;1.98;74.16;101763.66;5101247;28;20066;-81
2021/04/13 02:12:15;;;;;;;14.38;11.57;;;;;;;1.95;74.24;101771.44;5099304;28;20052;-82
2021/04/13 02:15:01;;;;;;;13.73;11.05;;;;;;;1.93;74.17;101778.38;5093989;28;20068;-82
2021/04/13 02:17:36;;;;;;;16.05;12.18;;;;;;;1.94;73.95;101775.78;5068994;28;20036;-82
2021/04/13 02:20:07;;;;;;;16.23;11.32;;;;;;;1.95;74.24;101781.91;5076650;28;20098;-81
2021/04/13 02:22:35;;;;;;;16.67;11.52;;;;;;;1.92;74.63;101774.91;5082148;28;20068;-82
2021/04/13 02:25:04;;;;;;;19.00;12.23;;;;;;;1.88;74.85;101773.13;5080487;28;20529;-83
2021/04/13 02:27:37;;;;;;;17.50;11.80;;;;;;;1.92;75.08;101781.84;5070511;28;20124;-83
2021/04/13 02:30:13;;;;;;;16.15;11.63;;;;;;;1.90;75.28;101780.97;5075721;28;20072;-83
2021/04/13 02:32:45;;;;;;;15.35;11.75;;;;;;;1.85;76.05;101778.31;5081369;28;20091;-83
2021/04/13 02:35:31;;;;;;;16.75;12.10;;;;;;;1.82;76.65;101782.63;5077094;28;20056;-84
2021/04/13 02:38:01;;;;;;;16.35;11.80;;;;;;;1.83;76.55;101787.00;5072505;28;20060;-84
2021/04/13 02:40:57;;;;;;;;;;;;;;;1.82;76.87;101790.47;5069385;28;20079;-81
2021/04/13 02:43:44;;;;;;;15.90;11.77;;;;;;;1.79;76.88;101782.59;5076939;28;20026;-83
2021/04/13 02:46:15;;;;;;;16.52;12.00;;;;;;;1.80;77.05;101789.56;5086358;28;20079;-82
2021/04/13 02:48:49;;;;;;;16.40;12.25;;;;;;;1.80;77.05;101784.34;5087470;28;20108;-82
2021/04/13 02:51:17;;;;;;;18.13;12.57;;;;;;;1.82;77.35;101793.09;5085166;28;20112;-82
2021/04/13 02:53:49;;;;;;;15.32;11.85;;;;;;;1.75;77.07;101787.78;5078842;28;20050;-82
2021/04/13 02:56:22;;;;;;;16.08;12.07;;;;;;;1.77;77.22;101793.03;5081234;28;20051;-82
2021/04/13 02:59:02;;;;;;;17.10;12.20;;;;;;;1.77;77.33;101799.13;5075614;28;20109;-82
2021/04/13 03:01:34;;;;;;;17.05;12.30;;;;;;;1.75;77.22;101800.84;5083891;28;20044;-84
2021/04/13 03:04:07;;;;;;;16.77;11.98;;;;;;;1.72;77.17;101799.94;5086481;28;20031;-83
2021/04/13 03:06:44;;;;;;;16.55;11.80;;;;;;;1.67;77.26;101797.28;5115421;28;20063;-82
2021/04/13 03:09:12;;;;;;;15.93;11.63;;;;;;;1.67;77.43;101804.22;5088821;28;20063;-82
2021/04/13 03:11:47;;;;;;;16.55;11.98;;;;;;;1.54;77.23;101797.13;5073395;28;20044;-81
2021/04/13 03:14:17;;;;;;;19.15;12.88;;;;;;;1.42;77.63;101808.25;5077074;28;20059;-83
2021/04/13 03:16:47;;;;;;;17.15;12.27;;;;;;;1.31;78.23;101808.13;5077354;28;20076;-82
2021/04/13 03:19:18;;;;;;;;;;;;;;;1.31;78.34;101815.06;5073670;28;20111;-82
2021/04/13 03:21:50;;;;;;;17.00;12.20;;;;;;;1.29;78.99;101815.06;5072188;28;19931;-82
2021/04/13 03:24:24;;;;;;;17.42;12.77;;;;;;;1.31;79.01;101810.72;5074256;28;20140;-81
2021/04/13 03:26:54;;;;;;;17.38;12.07;;;;;;;1.36;78.82;101819.50;5068427;28;20107;-81
2021/04/13 03:29:26;;;;;;;17.98;13.18;;;;;;;1.38;78.88;101815.19;5079842;28;20647;-81
2021/04/13 03:31:54;;;;;;;16.73;12.32;;;;;;;1.34;78.32;101815.13;5069747;28;20476;-81
2021/04/13 03:34:25;;;;;;;18.73;13.00;;;;;;;1.33;78.63;101818.59;5079513;28;20059;-81
2021/04/13 03:36:54;;;;;;;16.08;12.10;;;;;;;1.32;78.06;101819.44;5079719;28;20589;-82
2021/04/13 03:39:33;;;;;;;17.92;12.43;;;;;;;1.30;78.62;101826.38;5085854;28;20082;-82
2021/04/13 03:42:01;;;;;;;19.77;13.20;;;;;;;1.30;78.65;101821.16;5074596;28;20055;-82
2021/04/13 03:44:28;;;;;;;17.33;12.77;;;;;;;1.29;78.70;101832.44;5090261;28;20048;-83
2021/04/13 03:46:55;;;;;;;18.48;13.43;;;;;;;1.26;78.53;101833.28;5089999;28;20072;-82
2021/04/13 03:49:30;;;;;;;16.10;12.60;;;;;;;1.21;77.83;101831.47;5083070;28;20021;-82
2021/04/13 03:52:11;;;;;;;21.90;12.20;;;;;;;1.18;78.60;101834.03;5082085;28;20074;-82
2021/04/13 03:54:40;;;;;;;17.58;11.68;;;;;;;1.13;78.80;101830.47;5081070;28;20044;-82
2021/04/13 03:57:08;;;;;;;16.80;11.82;;;;;;;1.15;78.99;101836.59;5086153;28;20048;-81
2021/04/13 03:59:39;;;;;;;17.55;12.20;;;;;;;1.15;79.04;101844.41;5095105;28;20043;-83
2021/04/13 04:02:07;;;;;;;15.27;11.90;;;;;;;1.18;78.76;101839.25;5090906;28;20040;-81
2021/04/13 04:04:35;;;;;;;15.50;12.07;;;;;;;1.22;78.60;101843.66;5085670;28;20037;-82
2021/04/13 04:07:30;;;;;;;16.35;12.00;;;;;;;1.12;78.24;101847.84;5090892;28;20064;-82
2021/04/13 04:09:56;;;;;;;18.95;12.85;;;;;;;1.14;79.12;101848.75;5086460;28;20116;-82
2021/04/13 04:12:28;;;;;;;17.08;12.65;;;;;;;1.18;79.07;101853.19;5088156;28;20395;-82
2021/04/13 04:15:09;;;;;;;19.35;13.25;;;;;;;1.16;79.00;101856.63;5076561;28;20104;-80
2021/04/13 04:17:49;;;;;;;18.00;12.82;;;;;;;1.12;78.98;101860.03;5080551;28;20059;-81
2021/04/13 04:20:16;;;;;;;18.88;13.00;;;;;;;1.05;79.47;101859.94;5076825;28;20059;-81
2021/04/13 04:22:51;;;;;;;18.02;13.07;;;;;;;1.05;79.73;101859.06;5082925;28;20040;-81
2021/04/13 04:25:43;;;;;;;17.42;13.00;;;;;;;1.14;80.63;101858.31;5084135;28;20128;-80
2021/04/13 04:28:18;;;;;;;19.45;13.65;;;;;;;1.28;79.86;101856.78;5076728;28;20053;-82
2021/04/13 04:30:44;;;;;;;16.67;12.85;;;;;;;1.43;79.20;101872.66;5074808;28;20115;-81
2021/04/13 04:33:39;;;;;;;21.10;14.13;;;;;;;1.40;78.85;101868.28;5071810;28;20040;-82
2021/04/13 04:36:31;;;;;;;17.40;12.80;;;;;;;1.43;79.07;101870.03;5074369;28;20107;-80
2021/04/13 04:39:21;;;;;;;18.73;14.13;;;;;;;1.44;78.87;101868.31;5070288;28;20048;-80
2021/04/13 04:41:49;;;;;;;19.60;13.48;;;;;;;1.43;78.84;101872.66;5067991;28;20071;-82
2021/04/13 04:44:25;;;;;;;20.90;15.00;;;;;;;1.43;78.86;101875.25;5072697;28;20064;-80
2021/04/13 04:46:58;;;;;;;21.80;14.48;;;;;;;1.48;79.28;101870.13;5079485;28;20041;-81
2021/04/13 04:49:47;;;;;;;19.35;14.77;;;;;;;1.66;78.65;101880.81;5080706;28;20051;-82
2021/04/13 04:52:15;;;;;;;20.52;13.95;;;;;;;1.72;78.56;101876.56;5089236;28;20024;-81
2021/04/13 04:54:43;;;;;;;22.42;15.30;;;;;;;1.81;78.46;101877.50;5084735;28;20049;-80
2021/04/13 04:57:11;;;;;;;18.77;14.10;;;;;;;1.91;78.05;101887.19;5078907;28;20057;-80
2021/04/13 04:59:37;;;;;;;19.83;14.57;;;;;;;1.97;77.52;101879.44;5078508;28;20082;-81
2021/04/13 05:02:03;;;;;;;20.73;14.15;;;;;;;2.00;77.52;101887.34;5080740;28;20120;-82
2021/04/13 05:04:58;;;;;;;22.58;14.40;;;;;;;2.08;77.19;101886.53;5090210;28;20079;-83
2021/04/13 05:07:24;;;;;;;20.50;14.50;;;;;;;2.13;77.27;101890.97;5084962;28;20055;-82
2021/04/13 05:09:50;;;;;;;22.05;14.60;;;;;;;2.19;76.74;101891.91;5090862;28;20063;-83
2021/04/13 05:12:17;;;;;;;22.73;15.00;;;;;;;2.23;76.30;101895.41;5090083;28;20063;-82
2021/04/13 05:14:43;;;;;;;21.65;15.02;;;;;;;2.26;76.65;101901.56;5082087;28;20459;-81
2021/04/13 05:17:09;;;;;;;21.08;15.23;;;;;;;2.27;76.09;101898.09;5078151;28;20048;-81
2021/04/13 05:19:36;;;;;;;22.45;15.98;;;;;;;2.35;75.98;101906.91;5085596;28;20078;-82
2021/04/13 05:22:02;;;;;;;23.58;16.20;;;;;;;2.43;75.97;101905.22;5079585;28;20497;-82
2021/04/13 05:24:30;;;;;;;24.95;16.33;;;;;;;2.56;75.10;101905.34;5063732;28;20055;-83
2021/04/13 05:26:58;;;;;;;24.35;15.68;;;;;;;2.69;75.09;101913.31;5068800;28;20045;-83
2021/04/13 05:29:25;;;;;;;23.40;16.13;;;;;;;2.77;74.16;101905.56;5079025;28;20044;-83
2021/04/13 05:31:51;;;;;;;24.48;16.90;;;;;;;2.81;73.99;101916.06;5092508;28;20032;-84
2021/04/13 05:34:25;;;;;;;33.08;22.25;;;;;;;2.90;74.02;101912.66;5079095;28;20044;-82
2021/04/13 05:36:54;;;;;;;21.25;15.60;;;;;;;3.07;73.92;101918.91;5071777;28;20048;-81
2021/04/13 05:39:21;;;;;;;20.95;15.30;;;;;;;3.21;72.95;101918.13;5073755;28;20717;-81
2021/04/13 05:41:49;;;;;;;20.65;15.18;;;;;;;3.35;71.89;101919.09;5072546;28;20070;-82
2021/04/13 05:44:19;;;;;;;20.83;15.23;;;;;;;3.45;71.70;101923.56;5066323;28;20108;-82
2021/04/13 05:46:45;;;;;;;22.95;15.40;;;;;;;3.55;71.15;101930.59;5066917;28;20056;-82
2021/04/13 05:49:13;;;;;;;19.60;14.00;;;;;;;3.65;71.07;101931.50;5070329;28;20082;-83
2021/04/13 05:51:39;;;;;;;19.70;15.00;;;;;;;3.63;70.20;101925.38;5071741;28;20538;-83
2021/04/13 05:54:05;;;;;;;18.13;13.95;;;;;;;3.60;69.92;101928.88;5072511;28;20159;-82
2021/04/13 05:56:38;;;;;;;22.25;15.73;;;;;;;3.47;69.93;101925.28;5069825;28;20044;-81
2021/04/13 05:59:08;;;;;;;23.52;16.38;;;;;;;3.38;70.41;101921.75;5079880;28;20054;-79
2021/04/13 06:01:35;;;;;;;24.33;15.75;;;;;;;3.30;69.75;101928.69;5085090;28;20048;-83
2021/04/13 06:04:03;;;;;;;23.75;16.70;;;;;;;3.28;70.52;101936.53;5072041;28;20059;-83
2021/04/13 06:06:31;;;;;;;25.80;16.45;;;;;;;3.22;71.76;101927.72;5079223;28;20053;-84
2021/04/13 06:08:57;;;;;;;21.88;16.35;;;;;;;3.13;71.90;101926.81;5076998;28;20048;-83
2021/04/13 06:11:28;;;;;;;23.30;16.40;;;;;;;3.10;71.38;101942.50;5080705;28;20043;-82
2021/04/13 06:14:02;;;;;;;25.67;17.60;;;;;;;3.09;71.85;101945.09;5071741;28;20068;-83
2021/04/13 06:16:36;;;;;;;27.10;16.60;;;;;;;3.12;72.16;101948.63;5073642;28;20044;-82
2021/04/13 06:19:04;;;;;;;23.92;16.38;;;;;;;3.16;71.83;101947.75;5071285;28;20885;-82
2021/04/13 06:21:31;;;;;;;25.35;16.88;;;;;;;3.27;71.79;101945.25;5065447;28;20364;-82
2021/04/13 06:23:58;;;;;;;24.25;17.45;;;;;;;3.39;71.14;101944.44;5063675;28;20048;-82
2021/04/13 06:26:25;;;;;;;24.95;16.95;;;;;;;3.49;71.42;101952.38;5067259;28;20052;-83
2021/04/13 06:28:52;;;;;;;25.33;17.48;;;;;;;3.65;71.13;101950.72;5069783;28;20049;-82
2021/04/13 06:31:18;;;;;;;25.00;17.38;;;;;;;3.79;69.96;101950.78;5068862;28;20045;-83
2021/04/13 06:33:45;;;;;;;27.40;17.88;;;;;;;3.98;69.73;101952.66;5065625;28;20045;-84
2021/04/13 06:36:15;;;;;;;24.42;17.50;;;;;;;4.17;68.57;101954.50;5071883;28;20177;-82
2021/04/13 06:38:45;;;;;;;22.63;16.98;;;;;;;4.37;67.79;101954.56;5067109;28;20052;-82
2021/04/13 06:41:32;;;;;;;23.60;16.35;;;;;;;4.84;68.51;101956.44;5067758;28;20076;-81
2021/04/13 06:44:28;;;;;;;23.17;16.30;;;;;;;6.97;62.08;101961.97;5069412;28;20060;-85
2021/04/13 06:47:08;;;;;;;23.23;16.73;;;;;;;9.09;56.05;101952.50;5069485;28;20072;-82
2021/04/13 06:49:58;;;;;;;19.48;15.05;;;;;;;11.11;49.79;101957.25;5075879;28;20044;-83
2021/04/13 06:52:47;;;;;;;20.80;14.73;;;;;;;12.71;43.81;101953.69;5077184;28;20049;-83
2021/04/13 06:55:44;;;;;;;20.30;15.18;;;;;;;14.01;39.45;101947.50;5079154;28;20051;-82
2021/04/13 06:58:45;;;;;;;18.63;13.40;;;;;;;15.01;36.64;101956.13;5073094;28;20168;-82
2021/04/13 07:01:15;;;;;;;18.15;13.63;;;;;;;15.73;34.37;101957.53;5074347;28;20045;-83
2021/04/13 07:04:04;;;;;;;17.15;13.35;;;;;;;15.46;33.21;101950.66;5065042;28;20061;-84
2021/04/13 07:06:40;;;;;;;16.67;13.35;;;;;;;15.95;33.49;101953.91;5071421;28;20044;-83
2021/04/13 07:09:18;;;;;;;16.83;12.93;;;;;;;15.84;33.20;101958.88;5072497;28;20048;-83
2021/04/13 07:11:58;;;;;;;18.60;14.32;;;;;;;15.82;32.96;101956.25;5069125;28;20047;-83
2021/04/13 07:14:52;;;;;;;14.38;12.55;;;;;;;16.11;32.54;101962.97;5078133;28;20040;-82
2021/04/13 07:17:29;;;;;;;17.25;13.00;;;;;;;16.00;31.82;101939.41;5075543;28;20032;-82
2021/04/13 07:20:06;;;;;;;17.42;13.43;;;;;;;15.74;31.63;101951.22;5084262;28;20162;-84
2021/04/13 07:22:40;;;;;;;14.30;11.35;;;;;;;15.58;33.12;101955.53;5088200;28;20048;-82
2021/04/13 07:25:12;;;;;;;17.55;12.38;;;;;;;16.10;31.54;101950.53;5088598;28;20095;-84
2021/04/13 07:27:53;;;;;;;17.27;11.75;;;;;;;15.90;31.19;101961.28;5073124;28;20044;-83
2021/04/13 07:30:36;;;;;;;15.15;11.25;;;;;;;15.58;31.78;101958.22;5080113;28;20061;-83
2021/04/13 07:33:06;;;;;;;15.30;11.85;;;;;;;16.02;31.93;101960.72;5078341;28;20067;-83
2021/04/13 07:35:38;;;;;;;15.30;12.48;;;;;;;16.45;31.23;101963.16;5076118;28;20094;-83
2021/04/13 07:38:40;;;;;;;15.52;11.98;;;;;;;16.91;30.25;101958.34;5073118;28;20051;-84
2021/04/13 07:42:05;;;;;;;16.67;12.98;;;;;;;17.33;29.24;101959.81;5068293;28;20048;-85
2021/04/13 07:44:51;;;;;;;16.92;11.93;;;;;;;15.92;30.67;101935.34;4994386;28;20088;-84
2021/04/13 07:48:14;;;;;;;13.73;11.80;;;;;;;15.58;31.61;101963.53;5013345;28;20532;-83
2021/04/13 07:51:18;;;;;;;15.73;10.98;;;;;;;15.67;33.24;101963.13;4989580;28;20055;-84
2021/04/13 07:54:19;;;;;;;13.95;11.65;;;;;;;15.55;32.85;101963.66;4986041;28;20065;-84
2021/04/13 07:56:50;;;;;;;13.00;10.30;;;;;;;15.68;31.78;101959.53;5100403;28;20071;-85
2021/04/13 07:59:44;;;;;;;13.80;10.65;;;;;;;14.95;32.46;101959.88;5080940;28;20033;-84
2021/04/13 08:02:13;;;;;;;13.73;9.90;;;;;;;15.30;33.38;101965.59;5085122;28;20109;-84
2021/04/13 08:04:48;;;;;;;15.18;9.48;;;;;;;15.66;31.97;101956.06;5078095;28;20056;-84
2021/04/13 08:07:23;;;;;;;12.30;8.90;;;;;;;16.12;30.53;101951.34;5061995;28;20057;-85
2021/04/13 08:10:33;;;;;;;8.48;6.65;;;;;;;15.63;29.56;101955.31;5073720;28;20055;-84
2021/04/13 08:13:07;;;;;;;5.65;3.22;;;;;;;15.79;28.96;101948.38;5067622;28;20055;-84
2021/04/13 08:15:53;;;;;;;8.43;3.15;;;;;;;16.21;27.98;101953.63;5076699;28;20113;-84
2021/04/13 08:18:34;;;;;;;5.60;2.25;;;;;;;16.02;28.06;101958.91;5063054;28;20052;-85
2021/04/13 08:21:18;;;;;;;4.03;2.33;;;;;;;16.28;28.65;101960.41;5072852;28;20048;-83
2021/04/13 08:23:45;;;;;;;4.22;2.53;;;;;;;16.31;28.10;101954.06;5068601;28;20045;-83
2021/04/13 08:26:39;;;;;;;4.72;2.70;;;;;;;15.85;28.14;101955.25;5076836;28;20537;-84
2021/04/13 08:29:39;;;;;;;5.28;3.25;;;;;;;15.79;28.60;101957.25;5092008;28;20052;-83
2021/04/13 08:35:21;;;;;;;5.35;2.80;;;;;;;14.02;31.44;101951.91;5086228;28;20040;-82
2021/04/13 08:37:52;;;;;;;4.70;3.22;;;;;;;12.99;34.29;101957.22;5079010;28;20060;-84
2021/04/13 08:40:27;;;;;;;8.75;4.38;;;;;;;12.37;36.12;101958.28;5081801;28;20040;-84
2021/04/13 08:43:17;;;;;;;8.75;4.88;;;;;;;11.85;36.60;101965.06;5094130;28;20060;-85
2021/04/13 08:45:49;;;;;;;6.88;4.43;;;;;;;11.29;37.83;101948.84;5096431;28;20032;-85
2021/04/13 08:48:29;;;;;;;7.60;4.53;;;;;;;10.62;39.10;101947.78;5094395;28;20047;-85
2021/04/13 08:51:12;;;;;;;6.82;4.50;;;;;;;10.24;40.78;101935.38;5090540;28;20148;-83
2021/04/13 08:53:44;;;;;;;8.02;4.50;;;;;;;9.95;41.29;101962.41;5091954;28;20497;-83
2021/04/13 08:56:25;;;;;;;8.13;4.90;;;;;;;9.51;42.58;101968.50;5073041;28;20110;-83
2021/04/13 08:58:57;;;;;;;8.18;4.50;;;;;;;9.26;44.54;101968.06;5072906;28;20100;-83
2021/04/13 09:01:39;;;;;;;8.13;5.07;;;;;;;9.16;43.36;101966.44;5077709;28;20089;-84
2021/04/13 09:04:12;;;;;;;6.95;4.90;;;;;;;8.84;43.59;101963.44;5088211;28;20056;-84
2021/04/13 09:06:52;;;;;;;10.73;5.00;;;;;;;8.54;44.64;101973.53;5081584;28;20122;-84
2021/04/13 09:09:38;;;;;;;;;;;;;;;8.38;45.63;101969.34;5091086;28;20048;-84
2021/04/13 09:12:16;;;;;;;7.50;4.80;;;;;;;8.10;45.22;101972.31;5091226;28;19923;-83
2021/04/13 09:14:52;;;;;;;9.95;5.05;;;;;;;7.90;46.03;101976.94;5085518;28;20059;-82
2021/04/13 09:18:07;;;;;;;7.55;4.45;;;;;;;7.46;46.07;101958.06;5073487;28;20460;-83
2021/04/13 09:20:41;;;;;;;9.20;4.38;;;;;;;7.64;46.80;101971.94;5067083;28;20041;-83
2021/04/13 09:23:12;;;;;;;8.82;5.10;;;;;;;7.65;46.26;101967.53;5058754;28;20048;-83
2021/04/13 09:25:54;;;;;;;6.95;4.40;;;;;;;7.94;46.44;101969.88;5070411;28;20787;-84
2021/04/13 09:28:52;;;;;;;7.85;4.07;;;;;;;8.21;45.86;101969.53;5049111;28;20379;-83
2021/04/13 09:31:41;;;;;;;4.97;2.83;;;;;;;8.42;44.38;101965.78;5075703;28;20144;-85
2021/04/13 09:34:25;;;;;;;5.22;3.17;;;;;;;8.70;43.60;101956.59;5066044;28;20076;-84
2021/04/13 09:37:34;;;;;;;5.00;2.00;;;;;;;8.66;41.73;101959.28;5072064;28;20068;-84
2021/04/13 09:40:34;;;;;;;7.07;2.90;;;;;;;8.76;42.80;101951.22;5049545;28;20055;-84
2021/04/13 09:43:14;;;;;;;8.00;4.60;;;;;;;8.98;43.77;101927.09;5029241;28;20068;-80
2021/04/13 09:45:51;;;;;;;5.95;3.95;;;;;;;9.38;43.02;101954.63;5081306;28;20060;-85
2021/04/13 09:48:55;;;;;;;7.20;3.67;;;;;;;9.28;41.83;101945.13;5087581;28;20049;-83
2021/04/13 09:51:28;;;;;;;6.32;2.92;;;;;;;9.11;42.35;101952.47;5091352;28;20079;-85
2021/04/13 09:54:21;;;;;;;7.05;3.00;;;;;;;8.71;43.16;101947.78;5089406;28;20086;-83
2021/04/13 09:56:56;;;;;;;3.47;2.22;;;;;;;8.64;44.72;101943.50;5093781;28;20289;-84
2021/04/13 09:59:45;;;;;;;4.20;2.40;;;;;;;8.69;44.71;101948.69;5091521;28;20048;-82
2021/04/13 10:02:31;;;;;;;5.72;2.90;;;;;;;8.59;44.86;101934.75;5081912;28;20222;-82
2021/04/13 10:05:12;;;;;;;;;;;;;;;8.60;44.93;101947.06;5082350;28;20070;-82
2021/04/13 10:07:55;;;;;;;4.60;2.28;;;;;;;8.44;44.21;101942.91;5078867;28;20027;-82
2021/04/13 10:10:30;;;;;;;4.22;1.98;;;;;;;8.49;44.25;101940.19;5067582;28;20156;-83
2021/04/13 10:13:02;;;;;;;6.15;2.25;;;;;;;8.42;44.81;101939.41;5072987;28;20121;-83
2021/04/13 10:15:59;;;;;;;4.85;1.85;;;;;;;8.58;42.95;101933.00;5071015;28;20139;-83
2021/04/13 10:19:02;;;;;;;2.33;1.65;;;;;;;8.67;42.22;101937.28;5075914;28;20084;-83
2021/04/13 10:22:06;;;;;;;2.25;1.48;;;;;;;8.74;41.05;101929.25;5080856;28;20049;-83
2021/04/13 10:24:57;;;;;;;4.80;1.63;;;;;;;9.19;41.03;101928.53;5076731;28;20456;-83
2021/04/13 10:27:54;;;;;;;3.15;1.20;;;;;;;9.64;38.80;101922.44;5078429;28;20052;-84
2021/04/13 10:30:45;;;;;;;3.83;1.40;;;;;;;9.61;39.17;101917.19;5075335;28;20049;-84
2021/04/13 10:33:49;;;;;;;5.88;2.20;;;;;;;9.56;39.34;101920.84;5081667;28;20072;-84
2021/04/13 10:36:56;;;;;;;2.58;1.25;;;;;;;9.47;39.36;101912.16;5072935;28;20055;-84
2021/04/13 10:39:40;;;;;;;2.92;1.23;;;;;;;9.38;39.91;101916.75;5084438;28;20049;-83
2021/04/13 10:42:11;;;;;;;4.13;1.55;;;;;;;9.44;40.29;101922.78;5089163;28;20093;-84
2021/04/13 10:44:59;;;;;;;3.85;1.50;;;;;;;9.27;41.32;101916.09;5088337;28;20066;-84
2021/04/13 10:47:58;;;;;;;6.63;2.03;;;;;;;9.45;42.30;101906.03;5084265;28;20079;-85
2021/04/13 10:50:48;;;;;;;4.20;1.60;;;;;;;9.46;41.46;101907.78;5088421;28;20044;-84
2021/04/13 10:53:40;;;;;;;5.75;1.92;;;;;;;9.55;41.58;101905.88;5084672;28;20044;-84
2021/04/13 10:56:22;;;;;;;4.32;1.80;;;;;;;9.66;41.79;101906.53;5089406;28;20048;-84
2021/04/13 10:59:10;;;;;;;3.13;1.63;;;;;;;10.11;40.41;101907.38;5092831;28;20048;-83
2021/04/13 11:02:01;;;;;;;4.95;2.45;;;;;;;10.23;40.32;101893.91;5072187;28;20434;-84
2021/04/13 11:04:56;;;;;;;5.78;2.50;;;;;;;9.88;41.79;101893.75;5079613;28;20037;-83
2021/04/13 11:07:54;;;;;;;4.90;2.15;;;;;;;9.66;41.64;101896.81;5083160;28;20036;-83
2021/04/13 11:11:15;;;;;;;5.20;2.22;;;;;;;9.52;41.31;101892.69;5073701;28;20095;-83
2021/04/13 11:13:50;;;;;;;3.38;2.05;;;;;;;9.58;41.71;101889.94;4997973;28;20074;-83
2021/04/13 11:16:41;;;;;;;4.45;2.20;;;;;;;9.52;41.44;101887.41;5067710;28;20057;-84
2021/04/13 11:19:25;;;;;;;4.68;2.33;;;;;;;9.49;41.22;101899.78;5079116;28;20040;-84
2021/04/13 11:22:34;;;;;;;4.70;2.10;;;;;;;9.50;41.44;101887.44;5080427;28;20033;-84
2021/04/13 11:25:13;;;;;;;4.57;1.77;;;;;;;9.57;41.73;101891.72;5083186;28;20094;-84
2021/04/13 11:28:14;;;;;;;3.97;1.67;;;;;;;9.66;41.53;101888.00;5081051;28;20037;-84
2021/04/13 11:31:07;;;;;;;4.28;2.28;;;;;;;9.72;42.28;101898.50;5081979;28;20052;-83
2021/04/13 11:33:48;;;;;;;4.97;1.92;;;;;;;9.63;43.19;101888.94;5077199;28;20104;-84
2021/04/13 11:36:51;;;;;;;3.05;1.88;;;;;;;9.60;43.15;101885.50;5085267;28;20036;-81
2021/04/13 11:39:32;;;;;;;4.15;1.80;;;;;;;9.48;43.93;101897.16;5078069;28;20048;-84
2021/04/13 11:42:38;;;;;;;3.00;1.58;;;;;;;9.30;43.61;101892.22;5083976;28;20048;-82
2021/04/13 11:45:51;;;;;;;4.05;1.63;;;;;;;9.33;44.13;101893.03;5011600;28;20038;-84
2021/04/13 11:48:55;;;;;;;3.35;1.73;;;;;;;9.36;44.24;101892.97;5017830;28;20096;-81
2021/04/13 11:51:30;;;;;;;4.53;2.00;;;;;;;9.21;45.05;101895.91;5082722;28;20048;-84
2021/04/13 11:54:17;;;;;;;3.28;1.85;;;;;;;9.21;45.01;101895.91;5074045;28;20090;-84
2021/04/13 11:57:01;;;;;;;4.65;1.85;;;;;;;9.36;45.94;101890.34;5073750;28;20567;-81
2021/04/13 11:59:29;;;;;;;6.32;1.65;;;;;;;9.54;45.53;101893.53;5066821;28;20064;-82
2021/04/13 12:02:16;;;;;;;6.22;2.00;;;;;;;9.72;45.23;101879.97;5085684;28;20112;-83
2021/04/13 12:04:50;;;;;;;5.22;2.65;;;;;;;9.74;45.07;101891.41;5085317;28;20036;-83
2021/04/13 12:07:48;;;;;;;3.05;2.40;;;;;;;9.87;44.97;101889.38;5086249;28;20045;-83
2021/04/13 12:10:30;;;;;;;3.70;2.40;;;;;;;9.90;45.30;101887.53;5093450;28;20082;-84
2021/04/13 12:12:58;;;;;;;5.28;2.15;;;;;;;9.84;45.11;101887.66;5069985;28;20743;-84
2021/04/13 12:15:24;;;;;;;4.15;2.00;;;;;;;9.60;44.35;101896.94;5084888;28;20060;-84
2021/04/13 12:17:51;;;;;;;3.53;1.98;;;;;;;9.40;45.31;101901.75;5079553;28;20065;-82
2021/04/13 12:20:22;;;;;;;6.00;1.70;;;;;;;9.37;46.63;101899.16;5087780;28;20064;-84
2021/04/13 12:22:50;;;;;;;;;;;;;;;9.38;46.80;101901.75;5089615;28;20515;-84